createdAt,value
2023-07-03T00:01:23.072Z,16.68
2023-07-03T00:03:53.089Z,16.65
2023-07-03T00:06:19.929Z,16.64
2023-07-03T00:08:46.527Z,16.64
2023-07-03T00:11:13.125Z,16.63
2023-07-03T00:13:39.594Z,16.60
2023-07-03T00:16:06.441Z,16.55
2023-07-03T00:18:33.126Z,16.52
2023-07-03T00:20:59.816Z,16.52
2023-07-03T00:23:26.993Z,16.50
2023-07-03T00:25:53.840Z,16.46
2023-07-03T00:28:20.893Z,16.43
2023-07-03T00:30:47.388Z,16.39
2023-07-03T00:33:14.028Z,16.39
2023-07-03T00:35:40.745Z,16.35
2023-07-03T00:38:07.799Z,16.33
2023-07-03T00:40:34.404Z,16.33
2023-07-03T00:43:01.963Z,16.30
2023-07-03T00:45:29.421Z,16.31
2023-07-03T00:47:56.359Z,16.26
2023-07-03T00:50:23.553Z,16.25
2023-07-03T00:52:56.029Z,16.27
2023-07-03T00:55:23.395Z,16.26
2023-07-03T00:57:52.193Z,16.22
2023-07-03T01:00:27.804Z,16.18
2023-07-03T01:03:21.611Z,16.16
2023-07-03T01:05:51.468Z,16.15
2023-07-03T01:08:18.880Z,16.15
2023-07-03T01:10:46.459Z,16.17
2023-07-03T01:13:17.524Z,16.10
2023-07-03T01:15:45.805Z,16.08
2023-07-03T01:18:13.735Z,16.04
2023-07-03T01:20:46.707Z,15.97
2023-07-03T01:23:19.080Z,15.96
2023-07-03T01:25:48.424Z,15.93
2023-07-03T01:28:19.234Z,15.86
2023-07-03T01:30:47.813Z,15.87
2023-07-03T01:33:22.901Z,15.82
2023-07-03T01:35:51.270Z,15.84
2023-07-03T01:38:21.028Z,15.86
2023-07-03T01:40:48.254Z,15.84
2023-07-03T01:43:15.282Z,15.79
2023-07-03T01:45:46.905Z,15.78
2023-07-03T01:48:14.074Z,15.80
2023-07-03T01:50:41.555Z,15.77
2023-07-03T01:53:41.964Z,15.74
2023-07-03T01:56:22.947Z,15.78
2023-07-03T01:58:52.949Z,15.74
2023-07-03T02:01:28.326Z,15.73
2023-07-03T02:04:11.965Z,15.73
2023-07-03T02:06:43.064Z,15.74
2023-07-03T02:09:10.913Z,15.75
2023-07-03T02:11:37.609Z,15.72
2023-07-03T02:14:04.423Z,15.70
2023-07-03T02:16:31.221Z,15.63
2023-07-03T02:18:59.966Z,15.66
2023-07-03T02:21:28.562Z,15.64
2023-07-03T02:23:55.381Z,15.66
2023-07-03T02:26:22.026Z,15.66
2023-07-03T02:28:48.555Z,15.66
2023-07-03T02:31:15.240Z,15.68
2023-07-03T02:33:41.973Z,15.68
2023-07-03T02:36:08.509Z,15.69
2023-07-03T02:38:35.085Z,15.66
2023-07-03T02:41:03.177Z,15.63
2023-07-03T02:43:33.055Z,15.62
2023-07-03T02:46:04.621Z,15.59
2023-07-03T02:48:31.458Z,15.57
2023-07-03T02:50:58.376Z,15.59
2023-07-03T02:53:24.936Z,15.60
2023-07-03T02:55:54.765Z,15.59
2023-07-03T02:58:23.537Z,15.60
2023-07-03T03:00:50.245Z,15.56
2023-07-03T03:03:17.024Z,15.57
2023-07-03T03:05:43.720Z,15.60
2023-07-03T03:08:12.446Z,15.62
2023-07-03T03:10:39.393Z,15.62
2023-07-03T03:13:06.299Z,15.60
2023-07-03T03:15:36.088Z,15.56
2023-07-03T03:18:06.069Z,15.52
2023-07-03T03:20:33.138Z,15.53
2023-07-03T03:22:59.901Z,15.55
2023-07-03T03:25:26.594Z,15.54
2023-07-03T03:27:53.131Z,15.55
2023-07-03T03:30:19.766Z,15.54
2023-07-03T03:32:47.943Z,15.57
2023-07-03T03:35:14.773Z,15.57
2023-07-03T03:37:41.464Z,15.55
2023-07-03T03:40:10.272Z,15.58
2023-07-03T03:42:37.859Z,15.58
2023-07-03T03:45:05.483Z,15.57
2023-07-03T03:47:32.098Z,15.56
2023-07-03T03:49:58.725Z,15.54
2023-07-03T03:54:52.310Z,15.59
2023-07-03T03:57:19.231Z,15.60
2023-07-03T03:59:45.854Z,15.62
2023-07-03T04:02:15.903Z,15.61
2023-07-03T04:04:42.737Z,15.62
2023-07-03T04:07:10.593Z,15.64
2023-07-03T04:09:37.228Z,15.63
2023-07-03T04:12:04.003Z,15.69
2023-07-03T04:14:32.012Z,15.66
2023-07-03T04:16:59.454Z,15.65
2023-07-03T04:19:29.030Z,15.67
2023-07-03T04:21:55.627Z,15.69
2023-07-03T04:24:22.763Z,15.68
2023-07-03T04:26:49.553Z,15.69
2023-07-03T04:29:16.110Z,15.71
2023-07-03T04:31:42.709Z,15.70
2023-07-03T04:34:09.279Z,15.73
2023-07-03T04:36:35.794Z,15.76
2023-07-03T04:39:02.496Z,15.82
2023-07-03T04:41:29.203Z,15.78
2023-07-03T04:43:59.249Z,15.81
2023-07-03T04:46:27.972Z,15.82
2023-07-03T04:49:01.653Z,15.82
2023-07-03T04:51:32.139Z,15.90
2023-07-03T04:54:00.922Z,15.98
2023-07-03T04:56:28.907Z,15.99
2023-07-03T04:58:55.418Z,15.99
2023-07-03T05:01:22.323Z,16.02
2023-07-03T05:03:49.073Z,16.02
2023-07-03T05:06:15.735Z,16.05
2023-07-03T05:08:42.416Z,16.13
2023-07-03T05:11:09.198Z,16.14
2023-07-03T05:13:35.858Z,16.16
2023-07-03T05:16:02.646Z,16.17
2023-07-03T05:18:29.561Z,16.23
2023-07-03T05:20:56.274Z,16.28
2023-07-03T05:23:23.091Z,16.31
2023-07-03T05:25:49.954Z,16.39
2023-07-03T05:28:16.905Z,16.38
2023-07-03T05:30:43.480Z,16.39
2023-07-03T05:33:12.133Z,16.43
2023-07-03T05:35:48.714Z,16.43
2023-07-03T05:38:16.996Z,16.42
2023-07-03T05:40:43.565Z,16.45
2023-07-03T05:43:10.330Z,16.54
2023-07-03T05:45:37.008Z,16.69
2023-07-03T05:48:03.696Z,16.75
2023-07-03T05:50:30.351Z,16.82
2023-07-03T05:52:56.912Z,16.92
2023-07-03T05:55:23.674Z,16.98
2023-07-03T05:57:50.320Z,16.99
2023-07-03T06:00:17.441Z,17.06
2023-07-03T06:02:45.355Z,17.10
2023-07-03T06:05:13.296Z,17.08
2023-07-03T06:07:40.765Z,17.11
2023-07-03T06:10:09.156Z,17.18
2023-07-03T06:12:35.746Z,17.17
2023-07-03T06:15:02.534Z,17.16
2023-07-03T06:17:30.586Z,17.13
2023-07-03T06:19:57.313Z,17.16
2023-07-03T06:22:24.279Z,17.16
2023-07-03T06:24:51.219Z,17.14
2023-07-03T06:27:18.361Z,17.16
2023-07-03T06:29:46.054Z,17.24
2023-07-03T06:32:12.713Z,17.18
2023-07-03T06:34:40.842Z,17.15
2023-07-03T06:37:08.900Z,17.22
2023-07-03T06:39:39.064Z,17.24
2023-07-03T06:42:06.505Z,17.28
2023-07-03T06:44:33.105Z,17.63
2023-07-03T06:46:59.889Z,17.96
2023-07-03T06:49:26.859Z,17.98
2023-07-03T06:51:53.578Z,17.97
2023-07-03T06:54:20.673Z,18.13
2023-07-03T06:56:48.272Z,18.26
2023-07-03T06:59:14.927Z,18.30
2023-07-03T07:01:42.399Z,18.49
2023-07-03T07:04:12.053Z,18.55
2023-07-03T07:06:40.295Z,18.42
2023-07-03T07:09:06.985Z,18.48
2023-07-03T07:11:35.929Z,18.64
2023-07-03T07:14:04.290Z,18.69
2023-07-03T07:16:35.569Z,18.91
2023-07-03T07:19:06.772Z,19.24
2023-07-03T07:21:36.030Z,19.49
2023-07-03T07:24:23.924Z,19.62
2023-07-03T07:26:59.356Z,19.47
2023-07-03T07:29:26.584Z,19.42
2023-07-03T07:31:57.756Z,19.19
2023-07-03T07:34:25.287Z,18.98
2023-07-03T07:36:52.330Z,19.05
2023-07-03T07:39:21.389Z,19.16
2023-07-03T07:41:48.800Z,19.14
2023-07-03T07:44:15.318Z,18.96
2023-07-03T07:46:42.137Z,18.88
2023-07-03T07:49:09.980Z,18.89
2023-07-03T07:51:37.598Z,18.85
2023-07-03T07:54:06.447Z,18.73
2023-07-03T07:56:34.450Z,18.54
2023-07-03T07:59:01.613Z,18.84
2023-07-03T08:01:28.427Z,19.47
2023-07-03T08:03:55.379Z,19.48
2023-07-03T08:06:22.258Z,19.71
2023-07-03T08:08:51.050Z,19.95
2023-07-03T08:11:17.605Z,20.21
2023-07-03T08:13:44.140Z,20.36
2023-07-03T08:16:11.880Z,20.04
2023-07-03T08:18:39.030Z,19.67
2023-07-03T08:21:05.791Z,19.53
2023-07-03T08:23:32.466Z,19.26
2023-07-03T08:26:00.283Z,18.93
2023-07-03T08:28:27.214Z,18.77
2023-07-03T08:30:53.997Z,18.70
2023-07-03T08:33:20.846Z,18.65
2023-07-03T08:38:21.052Z,18.46
2023-07-03T08:40:48.351Z,18.42
2023-07-03T08:43:22.693Z,18.37
2023-07-03T08:45:52.220Z,18.36
2023-07-03T08:48:25.383Z,18.35
2023-07-03T08:50:55.870Z,18.33
2023-07-03T08:53:28.540Z,18.26
2023-07-03T08:56:36.878Z,18.29
2023-07-03T08:59:05.528Z,18.34
2023-07-03T09:01:49.534Z,18.53
2023-07-03T09:04:42.331Z,19.09
2023-07-03T09:07:14.821Z,19.25
2023-07-03T09:09:58.622Z,19.11
2023-07-03T09:13:06.310Z,18.87
2023-07-03T09:15:46.516Z,18.66
2023-07-03T09:18:18.811Z,18.62
2023-07-03T09:20:46.679Z,18.73
2023-07-03T09:23:29.881Z,18.90
2023-07-03T09:26:05.233Z,19.10
2023-07-03T09:28:38.558Z,19.41
2023-07-03T09:31:05.516Z,19.72
2023-07-03T09:33:32.377Z,20.29
2023-07-03T09:36:20.022Z,20.94
2023-07-03T09:38:48.555Z,20.74
2023-07-03T09:41:25.201Z,20.57
2023-07-03T09:43:51.819Z,20.58
2023-07-03T09:46:20.923Z,20.44
2023-07-03T09:48:48.013Z,20.31
2023-07-03T09:51:24.306Z,20.15
2023-07-03T09:53:51.610Z,20.05
2023-07-03T09:56:22.833Z,19.79
2023-07-03T09:58:52.369Z,19.78
2023-07-03T10:06:42.993Z,20.07
2023-07-03T10:12:03.872Z,19.87
2023-07-03T10:14:53.684Z,19.70
2023-07-03T10:17:31.644Z,19.59
2023-07-03T10:20:04.968Z,19.54
2023-07-03T10:22:32.772Z,19.61
2023-07-03T10:25:03.617Z,20.63
2023-07-03T10:27:31.463Z,21.32
2023-07-03T10:30:00.268Z,21.95
2023-07-03T10:32:34.464Z,22.31
2023-07-03T10:35:11.751Z,22.24
2023-07-03T10:38:12.223Z,21.78
2023-07-03T10:40:59.323Z,21.46
2023-07-03T10:43:29.923Z,21.49
2023-07-03T10:45:58.364Z,21.33
2023-07-03T10:48:29.998Z,20.98
2023-07-03T10:51:05.920Z,20.63
2023-07-03T10:53:45.856Z,20.31
2023-07-03T10:56:42.811Z,20.08
2023-07-03T10:59:16.380Z,19.74
2023-07-03T11:02:03.822Z,19.37
2023-07-03T11:04:56.550Z,19.26
2023-07-03T11:07:48.572Z,19.12
2023-07-03T11:10:45.203Z,18.91
2023-07-03T11:13:18.161Z,18.73
2023-07-03T11:15:54.083Z,18.57
2023-07-03T11:24:01.924Z,18.31
2023-07-03T11:29:13.027Z,18.27
2023-07-03T11:31:43.760Z,18.63
2023-07-03T11:44:32.217Z,20.76
2023-07-03T11:47:00.538Z,20.92
2023-07-03T11:49:38.741Z,21.25
2023-07-03T11:52:07.593Z,21.88
2023-07-03T11:54:37.130Z,21.83
2023-07-03T11:57:07.939Z,21.43
2023-07-03T11:59:44.029Z,21.12
2023-07-03T12:02:16.777Z,20.56
2023-07-03T12:04:49.481Z,20.23
2023-07-03T12:07:19.982Z,20.01
2023-07-03T12:09:47.764Z,19.93
2023-07-03T12:12:29.600Z,19.71
2023-07-03T12:14:58.796Z,19.52
2023-07-03T12:17:33.973Z,19.62
2023-07-03T12:20:08.418Z,19.58
2023-07-03T12:22:41.163Z,19.81
2023-07-03T12:25:20.302Z,20.05
2023-07-03T12:27:48.587Z,20.73
2023-07-03T12:30:22.823Z,20.66
2023-07-03T12:32:50.114Z,20.47
2023-07-03T12:35:23.344Z,20.22
2023-07-03T12:37:52.852Z,20.26
2023-07-03T12:40:20.995Z,20.31
2023-07-03T12:42:49.293Z,20.25
2023-07-03T12:45:20.534Z,20.27
2023-07-03T12:48:10.092Z,20.19
2023-07-03T12:50:46.485Z,20.19
2023-07-03T12:53:13.905Z,20.24
2023-07-03T12:55:42.529Z,20.20
2023-07-03T12:58:12.892Z,20.20
2023-07-03T13:00:39.898Z,20.19
2023-07-03T13:03:09.068Z,20.13
2023-07-03T13:05:37.522Z,19.93
2023-07-03T13:08:11.084Z,19.87
2023-07-03T13:10:38.011Z,19.78
2023-07-03T13:13:18.346Z,20.05
2023-07-03T13:15:46.141Z,20.41
2023-07-03T13:18:14.726Z,20.47
2023-07-03T13:20:53.892Z,20.25
2023-07-03T13:23:36.143Z,19.93
2023-07-03T13:26:07.305Z,19.67
2023-07-03T13:28:37.495Z,19.68
2023-07-03T13:31:04.144Z,19.73
2023-07-03T13:33:30.880Z,19.81
2023-07-03T13:35:57.629Z,19.70
2023-07-03T13:38:24.450Z,19.74
2023-07-03T13:40:53.540Z,19.55
2023-07-03T13:43:23.088Z,19.39
2023-07-03T13:45:51.800Z,19.15
2023-07-03T13:48:19.569Z,19.03
2023-07-03T13:50:47.057Z,18.89
2023-07-03T13:53:13.650Z,18.79
2023-07-03T13:55:40.886Z,18.75
2023-07-03T13:58:07.617Z,18.66
2023-07-03T14:00:35.730Z,18.62
2023-07-03T14:03:02.745Z,18.73
2023-07-03T14:05:29.476Z,19.57
2023-07-03T14:07:58.997Z,20.71
2023-07-03T14:10:26.329Z,21.18
2023-07-03T14:12:53.821Z,20.80
2023-07-03T14:15:26.898Z,20.38
2023-07-03T14:17:54.319Z,20.08
2023-07-03T14:20:22.782Z,20.13
2023-07-03T14:22:49.604Z,19.98
2023-07-03T14:25:17.555Z,19.72
2023-07-03T14:27:44.420Z,19.94
2023-07-03T14:30:12.758Z,20.37
2023-07-03T14:32:53.113Z,21.09
2023-07-03T14:35:23.895Z,20.65
2023-07-03T14:37:50.728Z,20.40
2023-07-03T14:40:17.736Z,20.00
2023-07-03T14:42:45.302Z,19.63
2023-07-03T14:45:12.736Z,19.42
2023-07-03T14:47:41.668Z,19.31
2023-07-03T14:50:12.870Z,19.17
2023-07-03T14:52:44.920Z,19.07
2023-07-03T14:55:13.604Z,18.94
2023-07-03T14:57:40.895Z,18.94
2023-07-03T15:00:09.916Z,19.11
2023-07-03T15:02:38.733Z,19.16
2023-07-03T15:05:05.857Z,19.13
2023-07-03T15:07:32.558Z,19.12
2023-07-03T15:09:59.222Z,19.00
2023-07-03T15:12:25.820Z,18.86
2023-07-03T15:14:55.705Z,18.83
2023-07-03T15:17:22.274Z,18.91
2023-07-03T15:19:48.876Z,19.04
2023-07-03T15:22:16.816Z,19.32
2023-07-03T15:24:44.007Z,19.52
2023-07-03T15:27:11.513Z,19.66
2023-07-03T15:29:38.070Z,19.84
2023-07-03T15:32:04.955Z,19.93
2023-07-03T15:34:31.565Z,20.50
2023-07-03T15:36:58.980Z,21.27
2023-07-03T15:39:26.737Z,21.27
2023-07-03T15:41:53.651Z,21.48
2023-07-03T15:44:21.217Z,21.81
2023-07-03T15:46:50.416Z,21.98
2023-07-03T15:49:17.217Z,21.53
2023-07-03T15:51:44.706Z,21.07
2023-07-03T15:54:11.339Z,20.71
2023-07-03T15:56:38.126Z,20.53
2023-07-03T15:59:05.295Z,20.58
2023-07-03T16:01:31.893Z,20.93
2023-07-03T16:04:02.358Z,21.28
2023-07-03T16:06:34.988Z,21.30
2023-07-03T16:09:02.536Z,21.02
2023-07-03T16:11:29.908Z,20.87
2023-07-03T16:13:59.874Z,20.60
2023-07-03T16:16:28.614Z,20.41
2023-07-03T16:19:00.814Z,20.32
2023-07-03T16:21:30.949Z,20.27
2023-07-03T16:23:58.934Z,20.18
2023-07-03T16:26:26.951Z,20.25
2023-07-03T16:28:54.568Z,20.20
2023-07-03T16:31:23.790Z,20.19
2023-07-03T16:33:52.186Z,20.16
2023-07-03T16:36:24.344Z,20.36
2023-07-03T16:38:53.313Z,20.42
2023-07-03T16:41:21.526Z,20.52
2023-07-03T16:43:50.223Z,20.44
2023-07-03T16:46:19.976Z,20.41
2023-07-03T16:48:49.027Z,20.65
2023-07-03T16:51:18.236Z,20.79
2023-07-03T16:53:45.876Z,21.39
2023-07-03T16:56:13.825Z,21.16
2023-07-03T16:58:44.226Z,21.42
2023-07-03T17:01:12.158Z,21.41
2023-07-03T17:03:39.024Z,21.28
2023-07-03T17:06:13.783Z,21.15
2023-07-03T17:08:40.322Z,21.13
2023-07-03T17:11:06.981Z,20.87
2023-07-03T17:13:33.643Z,20.74
2023-07-03T17:16:00.418Z,20.70
2023-07-03T17:18:27.066Z,20.72
2023-07-03T17:20:53.638Z,20.78
2023-07-03T17:23:20.258Z,20.68
2023-07-03T17:25:46.994Z,20.54
2023-07-03T17:28:13.742Z,20.72
2023-07-03T17:30:40.677Z,20.61
2023-07-03T17:33:08.548Z,20.44
2023-07-03T17:35:35.933Z,20.27
2023-07-03T17:38:02.634Z,20.09
2023-07-03T17:40:29.276Z,20.06
2023-07-03T17:42:55.802Z,20.10
2023-07-03T17:45:22.375Z,19.95
2023-07-03T17:47:49.144Z,19.91
2023-07-03T17:50:15.858Z,19.96
2023-07-03T17:52:42.794Z,20.04
2023-07-03T17:55:09.715Z,20.02
2023-07-03T17:57:36.335Z,19.80
2023-07-03T18:00:03.809Z,19.80
2023-07-03T18:02:30.736Z,19.73
2023-07-03T18:04:57.541Z,19.74
2023-07-03T18:07:24.299Z,19.67
2023-07-03T18:09:51.042Z,19.72
2023-07-03T18:12:17.820Z,19.68
2023-07-03T18:14:44.391Z,19.60
2023-07-03T18:17:12.040Z,19.47
2023-07-03T18:19:38.903Z,19.44
2023-07-03T18:22:05.466Z,19.38
2023-07-03T18:24:32.101Z,19.30
2023-07-03T18:26:58.790Z,19.20
2023-07-03T18:29:25.501Z,19.16
2023-07-03T18:31:52.326Z,19.06
2023-07-03T18:34:19.086Z,18.94
2023-07-03T18:36:45.673Z,18.93
2023-07-03T18:39:12.362Z,18.94
2023-07-03T18:41:39.090Z,18.90
2023-07-03T18:44:07.204Z,18.87
2023-07-03T18:46:34.131Z,18.89
2023-07-03T18:49:00.926Z,18.82
2023-07-03T18:51:27.659Z,18.83
2023-07-03T18:53:54.662Z,18.79
2023-07-03T18:56:22.768Z,18.75
2023-07-03T18:58:53.089Z,18.72
2023-07-03T19:01:20.451Z,18.60
2023-07-03T19:03:47.233Z,18.53
2023-07-03T19:06:16.730Z,18.52
2023-07-03T19:08:43.740Z,18.51
2023-07-03T19:11:10.752Z,18.43
2023-07-03T19:13:38.075Z,18.34
2023-07-03T19:16:06.802Z,18.15
2023-07-03T19:18:35.160Z,18.02
2023-07-03T19:21:01.741Z,17.83
2023-07-03T19:23:28.345Z,17.68
2023-07-03T19:25:56.977Z,17.54
2023-07-03T19:28:24.831Z,17.40
2023-07-03T19:31:02.933Z,17.25
2023-07-03T19:33:30.875Z,17.03
2023-07-03T19:36:00.464Z,16.75
2023-07-03T19:38:28.002Z,16.46
2023-07-03T19:40:54.743Z,16.18
2023-07-03T19:43:21.445Z,15.88
2023-07-03T19:45:48.095Z,15.63
2023-07-03T19:48:14.834Z,15.44
2023-07-03T19:50:42.775Z,15.17
2023-07-03T19:53:10.802Z,14.93
2023-07-03T19:55:38.902Z,14.81
2023-07-03T19:58:05.819Z,14.75
2023-07-03T20:00:32.954Z,14.62
2023-07-03T20:03:00.431Z,14.50
2023-07-03T20:05:26.980Z,14.41
2023-07-03T20:07:53.480Z,14.40
2023-07-03T20:10:20.358Z,14.36
2023-07-03T20:12:51.762Z,14.30
2023-07-03T20:15:20.881Z,14.25
2023-07-03T20:17:48.033Z,14.25
2023-07-03T20:20:15.664Z,14.20
2023-07-03T20:22:45.991Z,14.23
2023-07-03T20:25:12.926Z,14.19
2023-07-03T20:27:39.658Z,14.20
2023-07-03T20:30:07.580Z,14.19
2023-07-03T20:32:35.598Z,14.17
2023-07-03T20:35:03.109Z,14.18
2023-07-03T20:37:29.683Z,14.21
2023-07-03T20:39:58.982Z,14.10
2023-07-03T20:42:26.036Z,14.12
2023-07-03T20:44:54.776Z,14.14
2023-07-03T20:47:21.981Z,14.13
2023-07-03T20:49:48.935Z,14.17
2023-07-03T20:52:17.443Z,14.23
2023-07-03T20:54:54.474Z,14.20
2023-07-03T20:57:20.988Z,14.20
2023-07-03T20:59:51.501Z,14.19
2023-07-03T21:02:19.179Z,14.19
2023-07-03T21:04:45.734Z,14.18
2023-07-03T21:07:12.271Z,14.17
2023-07-03T21:09:38.975Z,14.16
2023-07-03T21:12:07.582Z,14.19
2023-07-03T21:14:34.194Z,14.19
2023-07-03T21:17:00.729Z,14.17
2023-07-03T21:19:27.414Z,14.14
2023-07-03T21:21:55.070Z,14.12
2023-07-03T21:24:22.503Z,14.12
2023-07-03T21:26:50.533Z,14.13
2023-07-03T21:29:17.098Z,14.12
2023-07-03T21:31:43.809Z,13.99
2023-07-03T21:34:13.113Z,14.02
2023-07-03T21:36:40.126Z,13.97
2023-07-03T21:39:07.251Z,14.01
2023-07-03T21:41:36.137Z,14.01
2023-07-03T21:44:11.386Z,14.06
2023-07-03T21:46:38.141Z,14.03
2023-07-03T21:49:05.914Z,14.03
2023-07-03T21:51:32.580Z,14.01
2023-07-03T21:53:59.378Z,14.00
2023-07-03T21:56:29.533Z,13.89
2023-07-03T21:59:04.862Z,13.81
2023-07-03T22:01:38.711Z,13.74
2023-07-03T22:04:07.361Z,13.69
2023-07-03T22:06:34.228Z,13.52
2023-07-03T22:09:00.800Z,13.49
2023-07-03T22:11:28.675Z,13.40
2023-07-03T22:13:55.962Z,13.36
2023-07-03T22:16:22.727Z,13.35
2023-07-03T22:18:50.348Z,13.24
2023-07-03T22:21:18.891Z,13.17
2023-07-03T22:23:50.023Z,13.12
2023-07-03T22:26:17.244Z,13.09
2023-07-03T22:28:44.009Z,13.08
2023-07-03T22:31:12.213Z,13.11
2023-07-03T22:33:39.455Z,12.97
2023-07-03T22:36:08.595Z,12.95
2023-07-03T22:38:35.314Z,12.93
2023-07-03T22:41:02.187Z,12.89
2023-07-03T22:43:31.625Z,12.91
2023-07-03T22:46:03.220Z,12.92
2023-07-03T22:48:30.848Z,12.93
2023-07-03T22:50:57.498Z,12.96
2023-07-03T22:53:24.084Z,12.95
2023-07-03T22:55:50.946Z,12.93
2023-07-03T22:58:17.730Z,12.93
2023-07-03T23:00:44.301Z,12.95
2023-07-03T23:03:11.097Z,12.92
2023-07-03T23:05:47.954Z,12.88
2023-07-03T23:08:16.252Z,12.94
2023-07-03T23:10:51.364Z,12.93
2023-07-03T23:13:19.199Z,12.90
2023-07-03T23:15:57.104Z,12.93
2023-07-03T23:18:24.382Z,12.93
2023-07-03T23:21:02.123Z,12.93
2023-07-03T23:23:32.198Z,12.93
2023-07-03T23:26:05.464Z,12.99
2023-07-03T23:28:35.879Z,12.97
2023-07-03T23:31:08.623Z,13.02
2023-07-03T23:33:35.546Z,13.02
2023-07-03T23:36:14.397Z,13.04
2023-07-03T23:38:42.888Z,13.06
2023-07-03T23:41:11.787Z,13.07
2023-07-03T23:43:39.868Z,13.09
2023-07-03T23:46:09.081Z,13.10
2023-07-03T23:48:37.110Z,13.14
2023-07-03T23:51:06.127Z,13.13
2023-07-03T23:53:34.190Z,13.11
2023-07-03T23:56:06.975Z,13.11
2023-07-03T23:58:35.384Z,13.12
